sensor_id;sensor_type;location;lat;lon;timestamp;P1;durP1;ratioP1;P2;durP2;ratioP2
76807;SDS011;65758;45.458;11.062;2023-03-23T00:02:12;25.30;;;14.40;;
76807;SDS011;65758;45.458;11.062;2023-03-23T00:04:37;23.40;;;15.10;;
76807;SDS011;65758;45.458;11.062;2023-03-23T00:07:03;24.80;;;15.20;;
76807;SDS011;65758;45.458;11.062;2023-03-23T00:09:28;28.30;;;15.30;;
76807;SDS011;65758;45.458;11.062;2023-03-23T00:11:55;24.00;;;14.50;;
76807;SDS011;65758;45.458;11.062;2023-03-23T00:14:22;25.60;;;15.20;;
76807;SDS011;65758;45.458;11.062;2023-03-23T00:16:50;24.90;;;15.70;;
76807;SDS011;65758;45.458;11.062;2023-03-23T00:19:16;25.40;;;16.40;;
76807;SDS011;65758;45.458;11.062;2023-03-23T00:21:45;25.70;;;15.50;;
76807;SDS011;65758;45.458;11.062;2023-03-23T00:24:17;22.40;;;14.50;;
76807;SDS011;65758;45.458;11.062;2023-03-23T00:26:44;25.10;;;15.70;;
76807;SDS011;65758;45.458;11.062;2023-03-23T00:29:13;23.60;;;14.90;;
76807;SDS011;65758;45.458;11.062;2023-03-23T00:31:41;27.80;;;15.40;;
76807;SDS011;65758;45.458;11.062;2023-03-23T00:34:12;23.80;;;15.00;;
76807;SDS011;65758;45.458;11.062;2023-03-23T00:36:44;24.90;;;15.20;;
76807;SDS011;65758;45.458;11.062;2023-03-23T00:39:11;24.90;;;15.40;;
76807;SDS011;65758;45.458;11.062;2023-03-23T00:41:37;27.80;;;16.70;;
76807;SDS011;65758;45.458;11.062;2023-03-23T00:44:03;27.10;;;15.70;;
76807;SDS011;65758;45.458;11.062;2023-03-23T00:46:29;25.20;;;14.80;;
76807;SDS011;65758;45.458;11.062;2023-03-23T00:48:55;27.10;;;15.90;;
76807;SDS011;65758;45.458;11.062;2023-03-23T00:51:22;29.10;;;16.60;;
76807;SDS011;65758;45.458;11.062;2023-03-23T00:53:49;25.40;;;15.90;;
76807;SDS011;65758;45.458;11.062;2023-03-23T00:56:15;26.10;;;16.00;;
76807;SDS011;65758;45.458;11.062;2023-03-23T00:58:41;25.40;;;15.70;;
76807;SDS011;65758;45.458;11.062;2023-03-23T01:01:07;24.50;;;16.30;;
76807;SDS011;65758;45.458;11.062;2023-03-23T01:03:33;26.40;;;17.10;;
76807;SDS011;65758;45.458;11.062;2023-03-23T01:06:04;28.20;;;16.60;;
76807;SDS011;65758;45.458;11.062;2023-03-23T01:08:30;26.70;;;15.80;;
76807;SDS011;65758;45.458;11.062;2023-03-23T01:11:04;27.00;;;16.30;;
76807;SDS011;65758;45.458;11.062;2023-03-23T01:13:32;24.70;;;16.20;;
76807;SDS011;65758;45.458;11.062;2023-03-23T01:15:58;25.10;;;16.20;;
76807;SDS011;65758;45.458;11.062;2023-03-23T01:18:24;27.60;;;16.00;;
76807;SDS011;65758;45.458;11.062;2023-03-23T01:20:50;28.60;;;18.40;;
76807;SDS011;65758;45.458;11.062;2023-03-23T01:23:15;27.40;;;16.30;;
76807;SDS011;65758;45.458;11.062;2023-03-23T01:25:41;25.70;;;16.40;;
76807;SDS011;65758;45.458;11.062;2023-03-23T01:28:06;28.30;;;16.80;;
76807;SDS011;65758;45.458;11.062;2023-03-23T01:30:32;25.00;;;15.80;;
76807;SDS011;65758;45.458;11.062;2023-03-23T01:32:58;24.90;;;16.30;;
76807;SDS011;65758;45.458;11.062;2023-03-23T01:35:23;25.60;;;15.20;;
76807;SDS011;65758;45.458;11.062;2023-03-23T01:37:51;30.50;;;17.70;;
76807;SDS011;65758;45.458;11.062;2023-03-23T01:40:17;24.00;;;16.20;;
76807;SDS011;65758;45.458;11.062;2023-03-23T01:42:43;27.40;;;16.90;;
76807;SDS011;65758;45.458;11.062;2023-03-23T01:53:38;28.30;;;17.10;;
76807;SDS011;65758;45.458;11.062;2023-03-23T01:56:09;26.90;;;16.50;;
76807;SDS011;65758;45.458;11.062;2023-03-23T01:58:38;27.60;;;17.80;;
76807;SDS011;65758;45.458;11.062;2023-03-23T02:03:33;28.20;;;18.40;;
76807;SDS011;65758;45.458;11.062;2023-03-23T02:06:02;29.10;;;16.50;;
76807;SDS011;65758;45.458;11.062;2023-03-23T02:08:35;29.30;;;17.00;;
76807;SDS011;65758;45.458;11.062;2023-03-23T02:11:13;28.90;;;17.20;;
76807;SDS011;65758;45.458;11.062;2023-03-23T02:13:41;28.10;;;17.60;;
76807;SDS011;65758;45.458;11.062;2023-03-23T02:18:51;29.20;;;18.10;;
76807;SDS011;65758;45.458;11.062;2023-03-23T02:21:39;34.10;;;20.60;;
76807;SDS011;65758;45.458;11.062;2023-03-23T02:27:06;29.80;;;18.60;;
76807;SDS011;65758;45.458;11.062;2023-03-23T02:29:49;30.60;;;17.50;;
76807;SDS011;65758;45.458;11.062;2023-03-23T02:32:25;31.10;;;18.90;;
76807;SDS011;65758;45.458;11.062;2023-03-23T02:35:22;30.70;;;18.80;;
76807;SDS011;65758;45.458;11.062;2023-03-23T02:37:58;30.90;;;18.80;;
76807;SDS011;65758;45.458;11.062;2023-03-23T02:40:29;32.80;;;20.10;;
76807;SDS011;65758;45.458;11.062;2023-03-23T02:42:58;33.50;;;18.80;;
76807;SDS011;65758;45.458;11.062;2023-03-23T02:45:27;33.80;;;20.40;;
76807;SDS011;65758;45.458;11.062;2023-03-23T02:47:55;31.70;;;18.30;;
76807;SDS011;65758;45.458;11.062;2023-03-23T02:50:22;34.80;;;19.90;;
76807;SDS011;65758;45.458;11.062;2023-03-23T02:52:51;32.60;;;19.00;;
76807;SDS011;65758;45.458;11.062;2023-03-23T02:55:19;30.10;;;19.50;;
76807;SDS011;65758;45.458;11.062;2023-03-23T02:57:52;27.70;;;17.10;;
76807;SDS011;65758;45.458;11.062;2023-03-23T03:00:18;28.90;;;18.20;;
76807;SDS011;65758;45.458;11.062;2023-03-23T03:02:50;28.50;;;15.20;;
76807;SDS011;65758;45.458;11.062;2023-03-23T03:07:49;24.20;;;13.80;;
76807;SDS011;65758;45.458;11.062;2023-03-23T03:13:01;25.40;;;13.50;;
76807;SDS011;65758;45.458;11.062;2023-03-23T03:16:20;19.50;;;13.00;;
76807;SDS011;65758;45.458;11.062;2023-03-23T03:18:33;23.20;;;14.20;;
76807;SDS011;65758;45.458;11.062;2023-03-23T03:21:16;25.30;;;15.80;;
76807;SDS011;65758;45.458;11.062;2023-03-23T03:23:46;26.20;;;16.30;;
76807;SDS011;65758;45.458;11.062;2023-03-23T03:26:14;29.10;;;16.80;;
76807;SDS011;65758;45.458;11.062;2023-03-23T03:28:51;27.70;;;16.20;;
76807;SDS011;65758;45.458;11.062;2023-03-23T03:31:19;29.00;;;16.80;;
76807;SDS011;65758;45.458;11.062;2023-03-23T03:33:53;29.40;;;16.90;;
76807;SDS011;65758;45.458;11.062;2023-03-23T03:36:24;26.80;;;16.70;;
76807;SDS011;65758;45.458;11.062;2023-03-23T03:38:53;27.30;;;17.30;;
76807;SDS011;65758;45.458;11.062;2023-03-23T03:41:23;29.30;;;17.00;;
76807;SDS011;65758;45.458;11.062;2023-03-23T03:43:48;27.80;;;16.70;;
76807;SDS011;65758;45.458;11.062;2023-03-23T03:46:14;28.00;;;17.40;;
76807;SDS011;65758;45.458;11.062;2023-03-23T03:48:40;28.00;;;17.80;;
76807;SDS011;65758;45.458;11.062;2023-03-23T03:51:06;28.70;;;18.40;;
76807;SDS011;65758;45.458;11.062;2023-03-23T03:53:33;36.00;;;17.90;;
76807;SDS011;65758;45.458;11.062;2023-03-23T03:55:59;26.10;;;17.00;;
76807;SDS011;65758;45.458;11.062;2023-03-23T03:58:30;25.50;;;16.70;;
76807;SDS011;65758;45.458;11.062;2023-03-23T04:01:17;28.30;;;17.60;;
76807;SDS011;65758;45.458;11.062;2023-03-23T04:03:46;29.40;;;18.10;;
76807;SDS011;65758;45.458;11.062;2023-03-23T04:06:18;26.60;;;16.70;;
76807;SDS011;65758;45.458;11.062;2023-03-23T04:08:44;26.10;;;16.10;;
76807;SDS011;65758;45.458;11.062;2023-03-23T04:11:12;27.10;;;16.70;;
76807;SDS011;65758;45.458;11.062;2023-03-23T04:13:39;29.50;;;17.70;;
76807;SDS011;65758;45.458;11.062;2023-03-23T04:16:34;29.10;;;18.40;;
76807;SDS011;65758;45.458;11.062;2023-03-23T04:19:00;31.70;;;18.90;;
76807;SDS011;65758;45.458;11.062;2023-03-23T04:21:26;35.00;;;19.00;;
76807;SDS011;65758;45.458;11.062;2023-03-23T04:23:55;29.60;;;20.10;;
76807;SDS011;65758;45.458;11.062;2023-03-23T04:26:27;31.10;;;18.90;;
76807;SDS011;65758;45.458;11.062;2023-03-23T04:28:56;30.30;;;19.50;;
76807;SDS011;65758;45.458;11.062;2023-03-23T04:31:32;31.30;;;17.70;;
76807;SDS011;65758;45.458;11.062;2023-03-23T04:34:09;29.60;;;18.30;;
76807;SDS011;65758;45.458;11.062;2023-03-23T04:36:41;32.00;;;19.10;;
76807;SDS011;65758;45.458;11.062;2023-03-23T04:39:14;29.90;;;18.40;;
76807;SDS011;65758;45.458;11.062;2023-03-23T04:41:41;30.30;;;17.90;;
76807;SDS011;65758;45.458;11.062;2023-03-23T04:44:16;27.70;;;18.40;;
76807;SDS011;65758;45.458;11.062;2023-03-23T04:46:48;28.00;;;17.70;;
76807;SDS011;65758;45.458;11.062;2023-03-23T04:49:16;29.70;;;18.10;;
76807;SDS011;65758;45.458;11.062;2023-03-23T04:51:48;31.20;;;18.50;;
76807;SDS011;65758;45.458;11.062;2023-03-23T04:54:26;31.70;;;18.60;;
76807;SDS011;65758;45.458;11.062;2023-03-23T04:56:55;30.70;;;18.00;;
76807;SDS011;65758;45.458;11.062;2023-03-23T04:59:24;28.70;;;17.60;;
76807;SDS011;65758;45.458;11.062;2023-03-23T05:02:28;27.80;;;18.10;;
76807;SDS011;65758;45.458;11.062;2023-03-23T05:04:56;32.10;;;18.00;;
76807;SDS011;65758;45.458;11.062;2023-03-23T05:07:25;27.10;;;16.80;;
76807;SDS011;65758;45.458;11.062;2023-03-23T05:09:52;27.40;;;18.00;;
76807;SDS011;65758;45.458;11.062;2023-03-23T05:12:20;34.30;;;19.10;;
76807;SDS011;65758;45.458;11.062;2023-03-23T05:14:50;34.00;;;18.50;;
76807;SDS011;65758;45.458;11.062;2023-03-23T05:17:17;29.70;;;18.90;;
76807;SDS011;65758;45.458;11.062;2023-03-23T05:19:44;31.60;;;18.90;;
76807;SDS011;65758;45.458;11.062;2023-03-23T05:22:31;29.50;;;17.80;;
76807;SDS011;65758;45.458;11.062;2023-03-23T05:24:58;31.80;;;19.00;;
76807;SDS011;65758;45.458;11.062;2023-03-23T05:27:25;31.40;;;18.50;;
76807;SDS011;65758;45.458;11.062;2023-03-23T05:29:58;28.50;;;17.70;;
76807;SDS011;65758;45.458;11.062;2023-03-23T05:32:24;28.10;;;16.90;;
76807;SDS011;65758;45.458;11.062;2023-03-23T05:34:57;30.30;;;17.20;;
76807;SDS011;65758;45.458;11.062;2023-03-23T05:37:24;25.00;;;16.80;;
76807;SDS011;65758;45.458;11.062;2023-03-23T05:40:00;30.90;;;18.90;;
76807;SDS011;65758;45.458;11.062;2023-03-23T05:42:51;31.60;;;17.60;;
76807;SDS011;65758;45.458;11.062;2023-03-23T05:45:23;33.20;;;18.50;;
76807;SDS011;65758;45.458;11.062;2023-03-23T05:47:51;31.20;;;17.00;;
76807;SDS011;65758;45.458;11.062;2023-03-23T05:50:19;33.80;;;19.00;;
76807;SDS011;65758;45.458;11.062;2023-03-23T05:52:45;33.60;;;18.10;;
76807;SDS011;65758;45.458;11.062;2023-03-23T05:55:12;32.50;;;19.60;;
76807;SDS011;65758;45.458;11.062;2023-03-23T05:57:40;29.70;;;18.60;;
76807;SDS011;65758;45.458;11.062;2023-03-23T06:00:21;32.60;;;18.00;;
76807;SDS011;65758;45.458;11.062;2023-03-23T06:02:54;28.80;;;18.00;;
76807;SDS011;65758;45.458;11.062;2023-03-23T06:05:28;35.20;;;17.90;;
76807;SDS011;65758;45.458;11.062;2023-03-23T06:07:54;30.30;;;18.50;;
76807;SDS011;65758;45.458;11.062;2023-03-23T06:10:21;35.00;;;19.50;;
76807;SDS011;65758;45.458;11.062;2023-03-23T06:12:54;30.70;;;18.80;;
76807;SDS011;65758;45.458;11.062;2023-03-23T06:15:40;33.60;;;18.90;;
76807;SDS011;65758;45.458;11.062;2023-03-23T06:18:35;28.90;;;18.60;;
76807;SDS011;65758;45.458;11.062;2023-03-23T06:21:07;34.00;;;18.70;;
76807;SDS011;65758;45.458;11.062;2023-03-23T06:23:59;33.80;;;18.40;;
76807;SDS011;65758;45.458;11.062;2023-03-23T06:26:32;31.60;;;18.80;;
76807;SDS011;65758;45.458;11.062;2023-03-23T06:29:02;30.70;;;17.60;;
76807;SDS011;65758;45.458;11.062;2023-03-23T06:31:40;34.60;;;18.60;;
76807;SDS011;65758;45.458;11.062;2023-03-23T06:34:10;29.20;;;19.40;;
76807;SDS011;65758;45.458;11.062;2023-03-23T06:36:56;33.10;;;18.70;;
76807;SDS011;65758;45.458;11.062;2023-03-23T06:39:31;33.40;;;20.90;;
76807;SDS011;65758;45.458;11.062;2023-03-23T06:42:14;28.50;;;18.10;;
76807;SDS011;65758;45.458;11.062;2023-03-23T06:44:45;27.50;;;17.10;;
76807;SDS011;65758;45.458;11.062;2023-03-23T06:47:11;31.60;;;19.50;;
76807;SDS011;65758;45.458;11.062;2023-03-23T06:49:44;31.00;;;19.00;;
76807;SDS011;65758;45.458;11.062;2023-03-23T06:52:18;32.40;;;18.70;;
76807;SDS011;65758;45.458;11.062;2023-03-23T06:54:44;31.60;;;20.00;;
76807;SDS011;65758;45.458;11.062;2023-03-23T06:57:10;36.40;;;20.30;;
76807;SDS011;65758;45.458;11.062;2023-03-23T06:59:36;34.20;;;20.00;;
76807;SDS011;65758;45.458;11.062;2023-03-23T07:02:02;33.70;;;21.40;;
76807;SDS011;65758;45.458;11.062;2023-03-23T07:04:30;34.70;;;19.50;;
76807;SDS011;65758;45.458;11.062;2023-03-23T07:07:07;38.10;;;21.30;;
76807;SDS011;65758;45.458;11.062;2023-03-23T07:09:40;32.00;;;20.50;;
76807;SDS011;65758;45.458;11.062;2023-03-23T07:12:06;32.90;;;21.00;;
76807;SDS011;65758;45.458;11.062;2023-03-23T07:14:37;31.20;;;20.30;;
76807;SDS011;65758;45.458;11.062;2023-03-23T07:17:03;37.40;;;20.40;;
76807;SDS011;65758;45.458;11.062;2023-03-23T07:19:30;35.70;;;21.70;;
76807;SDS011;65758;45.458;11.062;2023-03-23T07:21:57;31.30;;;19.80;;
76807;SDS011;65758;45.458;11.062;2023-03-23T07:24:23;29.70;;;19.80;;
76807;SDS011;65758;45.458;11.062;2023-03-23T07:27:04;30.90;;;19.70;;
76807;SDS011;65758;45.458;11.062;2023-03-23T07:29:30;32.00;;;20.30;;
76807;SDS011;65758;45.458;11.062;2023-03-23T07:32:06;30.70;;;18.70;;
76807;SDS011;65758;45.458;11.062;2023-03-23T07:34:36;31.70;;;20.10;;
76807;SDS011;65758;45.458;11.062;2023-03-23T07:37:16;35.70;;;21.30;;
76807;SDS011;65758;45.458;11.062;2023-03-23T07:39:45;33.10;;;20.90;;
76807;SDS011;65758;45.458;11.062;2023-03-23T07:42:12;36.20;;;21.60;;
76807;SDS011;65758;45.458;11.062;2023-03-23T07:44:46;33.10;;;21.00;;
76807;SDS011;65758;45.458;11.062;2023-03-23T07:49:39;30.60;;;18.70;;
76807;SDS011;65758;45.458;11.062;2023-03-23T07:52:13;32.40;;;20.00;;
76807;SDS011;65758;45.458;11.062;2023-03-23T07:54:39;32.90;;;20.00;;
76807;SDS011;65758;45.458;11.062;2023-03-23T07:57:35;36.40;;;22.20;;
76807;SDS011;65758;45.458;11.062;2023-03-23T08:02:42;37.30;;;22.10;;
76807;SDS011;65758;45.458;11.062;2023-03-23T08:05:38;38.30;;;23.10;;
76807;SDS011;65758;45.458;11.062;2023-03-23T08:08:39;42.00;;;23.70;;
76807;SDS011;65758;45.458;11.062;2023-03-23T08:11:08;32.80;;;19.30;;
76807;SDS011;65758;45.458;11.062;2023-03-23T08:13:52;32.70;;;21.10;;
76807;SDS011;65758;45.458;11.062;2023-03-23T08:16:44;36.10;;;22.50;;
76807;SDS011;65758;45.458;11.062;2023-03-23T08:19:37;30.60;;;19.00;;
76807;SDS011;65758;45.458;11.062;2023-03-23T08:22:35;36.90;;;23.00;;
76807;SDS011;65758;45.458;11.062;2023-03-23T08:25:21;40.70;;;22.90;;
76807;SDS011;65758;45.458;11.062;2023-03-23T08:28:05;40.80;;;20.50;;
76807;SDS011;65758;45.458;11.062;2023-03-23T08:31:10;34.30;;;21.80;;
76807;SDS011;65758;45.458;11.062;2023-03-23T08:33:56;31.60;;;20.30;;
76807;SDS011;65758;45.458;11.062;2023-03-23T08:36:41;31.50;;;22.90;;
76807;SDS011;65758;45.458;11.062;2023-03-23T08:39:12;35.00;;;23.00;;
76807;SDS011;65758;45.458;11.062;2023-03-23T08:42:05;31.10;;;22.00;;
76807;SDS011;65758;45.458;11.062;2023-03-23T08:44:54;38.10;;;24.10;;
76807;SDS011;65758;45.458;11.062;2023-03-23T08:50:35;28.10;;;17.60;;
76807;SDS011;65758;45.458;11.062;2023-03-23T08:53:24;35.60;;;23.40;;
76807;SDS011;65758;45.458;11.062;2023-03-23T08:56:05;34.00;;;21.70;;
76807;SDS011;65758;45.458;11.062;2023-03-23T08:59:02;36.30;;;22.20;;
76807;SDS011;65758;45.458;11.062;2023-03-23T09:01:36;39.20;;;23.40;;
76807;SDS011;65758;45.458;11.062;2023-03-23T09:04:40;33.50;;;21.80;;
76807;SDS011;65758;45.458;11.062;2023-03-23T09:07:28;32.80;;;21.70;;
76807;SDS011;65758;45.458;11.062;2023-03-23T09:09:53;30.30;;;20.80;;
76807;SDS011;65758;45.458;11.062;2023-03-23T09:12:19;35.90;;;21.40;;
76807;SDS011;65758;45.458;11.062;2023-03-23T09:14:44;32.80;;;22.10;;
76807;SDS011;65758;45.458;11.062;2023-03-23T09:17:10;32.60;;;19.90;;
76807;SDS011;65758;45.458;11.062;2023-03-23T09:19:36;31.60;;;21.40;;
76807;SDS011;65758;45.458;11.062;2023-03-23T09:22:01;34.20;;;23.60;;
76807;SDS011;65758;45.458;11.062;2023-03-23T09:24:29;31.30;;;19.90;;
76807;SDS011;65758;45.458;11.062;2023-03-23T09:26:55;26.40;;;19.70;;
76807;SDS011;65758;45.458;11.062;2023-03-23T09:29:20;36.40;;;24.80;;
76807;SDS011;65758;45.458;11.062;2023-03-23T09:31:46;37.30;;;24.20;;
76807;SDS011;65758;45.458;11.062;2023-03-23T09:34:12;34.30;;;23.70;;
76807;SDS011;65758;45.458;11.062;2023-03-23T09:36:41;29.70;;;21.60;;
76807;SDS011;65758;45.458;11.062;2023-03-23T09:39:08;31.70;;;21.70;;
76807;SDS011;65758;45.458;11.062;2023-03-23T09:47:30;31.30;;;22.10;;
76807;SDS011;65758;45.458;11.062;2023-03-23T09:50:08;37.00;;;24.70;;
76807;SDS011;65758;45.458;11.062;2023-03-23T09:52:39;35.60;;;24.20;;
76807;SDS011;65758;45.458;11.062;2023-03-23T09:55:10;35.60;;;24.00;;
76807;SDS011;65758;45.458;11.062;2023-03-23T09:57:59;32.20;;;23.10;;
76807;SDS011;65758;45.458;11.062;2023-03-23T10:00:41;27.50;;;19.80;;
76807;SDS011;65758;45.458;11.062;2023-03-23T10:03:30;31.80;;;21.70;;
76807;SDS011;65758;45.458;11.062;2023-03-23T10:06:02;34.90;;;21.00;;
76807;SDS011;65758;45.458;11.062;2023-03-23T10:08:30;31.50;;;21.20;;
76807;SDS011;65758;45.458;11.062;2023-03-23T10:16:24;29.70;;;19.80;;
76807;SDS011;65758;45.458;11.062;2023-03-23T10:21:34;33.70;;;22.70;;
76807;SDS011;65758;45.458;11.062;2023-03-23T10:24:03;32.80;;;22.10;;
76807;SDS011;65758;45.458;11.062;2023-03-23T10:29:15;30.90;;;21.80;;
76807;SDS011;65758;45.458;11.062;2023-03-23T10:31:44;34.60;;;23.20;;
76807;SDS011;65758;45.458;11.062;2023-03-23T10:34:35;38.80;;;24.70;;
76807;SDS011;65758;45.458;11.062;2023-03-23T10:37:27;26.70;;;19.60;;
76807;SDS011;65758;45.458;11.062;2023-03-23T10:40:01;32.40;;;21.40;;
76807;SDS011;65758;45.458;11.062;2023-03-23T10:42:35;33.10;;;21.60;;
76807;SDS011;65758;45.458;11.062;2023-03-23T10:50:35;30.70;;;22.00;;
76807;SDS011;65758;45.458;11.062;2023-03-23T10:53:07;27.50;;;18.50;;
76807;SDS011;65758;45.458;11.062;2023-03-23T10:55:41;30.30;;;20.80;;
76807;SDS011;65758;45.458;11.062;2023-03-23T10:58:11;30.50;;;21.30;;
76807;SDS011;65758;45.458;11.062;2023-03-23T11:00:43;34.20;;;24.50;;
76807;SDS011;65758;45.458;11.062;2023-03-23T11:05:42;32.00;;;22.60;;
76807;SDS011;65758;45.458;11.062;2023-03-23T11:08:13;31.90;;;23.00;;
76807;SDS011;65758;45.458;11.062;2023-03-23T11:10:51;37.40;;;24.60;;
76807;SDS011;65758;45.458;11.062;2023-03-23T11:13:19;33.40;;;22.70;;
76807;SDS011;65758;45.458;11.062;2023-03-23T11:15:47;36.70;;;26.00;;
76807;SDS011;65758;45.458;11.062;2023-03-23T11:18:24;36.70;;;24.80;;
76807;SDS011;65758;45.458;11.062;2023-03-23T11:20:54;34.40;;;24.00;;
76807;SDS011;65758;45.458;11.062;2023-03-23T11:23:27;37.30;;;24.10;;
76807;SDS011;65758;45.458;11.062;2023-03-23T11:26:08;30.40;;;21.30;;
76807;SDS011;65758;45.458;11.062;2023-03-23T11:31:23;31.60;;;22.90;;
76807;SDS011;65758;45.458;11.062;2023-03-23T11:34:03;32.50;;;23.40;;
76807;SDS011;65758;45.458;11.062;2023-03-23T11:36:36;31.80;;;22.10;;
76807;SDS011;65758;45.458;11.062;2023-03-23T11:41:49;37.70;;;25.50;;
76807;SDS011;65758;45.458;11.062;2023-03-23T11:44:15;35.70;;;24.40;;
76807;SDS011;65758;45.458;11.062;2023-03-23T11:46:43;35.90;;;26.70;;
76807;SDS011;65758;45.458;11.062;2023-03-23T11:49:18;29.50;;;21.90;;
76807;SDS011;65758;45.458;11.062;2023-03-23T11:51:55;33.50;;;24.50;;
76807;SDS011;65758;45.458;11.062;2023-03-23T11:54:36;40.80;;;27.20;;
76807;SDS011;65758;45.458;11.062;2023-03-23T11:57:08;37.20;;;25.90;;
76807;SDS011;65758;45.458;11.062;2023-03-23T11:59:37;35.10;;;24.50;;
76807;SDS011;65758;45.458;11.062;2023-03-23T12:10:16;34.30;;;24.20;;
76807;SDS011;65758;45.458;11.062;2023-03-23T12:15:33;39.40;;;27.00;;
76807;SDS011;65758;45.458;11.062;2023-03-23T12:21:14;33.80;;;22.60;;
76807;SDS011;65758;45.458;11.062;2023-03-23T12:29:16;44.10;;;27.30;;
76807;SDS011;65758;45.458;11.062;2023-03-23T12:45:50;38.70;;;27.60;;
76807;SDS011;65758;45.458;11.062;2023-03-23T12:48:23;44.60;;;28.50;;
76807;SDS011;65758;45.458;11.062;2023-03-23T12:53:44;37.50;;;26.90;;
76807;SDS011;65758;45.458;11.062;2023-03-23T12:58:50;40.70;;;26.90;;
76807;SDS011;65758;45.458;11.062;2023-03-23T13:01:25;34.70;;;23.90;;
76807;SDS011;65758;45.458;11.062;2023-03-23T13:04:03;33.50;;;22.80;;
76807;SDS011;65758;45.458;11.062;2023-03-23T13:06:47;37.70;;;25.60;;
76807;SDS011;65758;45.458;11.062;2023-03-23T13:09:27;40.30;;;25.60;;
76807;SDS011;65758;45.458;11.062;2023-03-23T13:12:01;37.30;;;24.50;;
76807;SDS011;65758;45.458;11.062;2023-03-23T13:22:56;31.30;;;21.40;;
76807;SDS011;65758;45.458;11.062;2023-03-23T13:28:02;37.70;;;25.50;;
76807;SDS011;65758;45.458;11.062;2023-03-23T13:30:28;36.30;;;25.30;;
76807;SDS011;65758;45.458;11.062;2023-03-23T13:33:02;36.50;;;23.50;;
76807;SDS011;65758;45.458;11.062;2023-03-23T13:35:33;32.70;;;22.60;;
76807;SDS011;65758;45.458;11.062;2023-03-23T13:38:10;32.10;;;21.00;;
76807;SDS011;65758;45.458;11.062;2023-03-23T13:40:50;34.40;;;23.00;;
76807;SDS011;65758;45.458;11.062;2023-03-23T13:43:29;35.30;;;24.00;;
76807;SDS011;65758;45.458;11.062;2023-03-23T13:54:12;36.30;;;23.50;;
76807;SDS011;65758;45.458;11.062;2023-03-23T13:56:47;27.90;;;19.50;;
76807;SDS011;65758;45.458;11.062;2023-03-23T14:01:56;30.20;;;18.60;;
76807;SDS011;65758;45.458;11.062;2023-03-23T14:04:42;23.60;;;16.00;;
76807;SDS011;65758;45.458;11.062;2023-03-23T14:07:15;30.40;;;19.90;;
76807;SDS011;65758;45.458;11.062;2023-03-23T14:09:44;27.40;;;18.70;;
76807;SDS011;65758;45.458;11.062;2023-03-23T14:12:18;30.10;;;19.70;;
76807;SDS011;65758;45.458;11.062;2023-03-23T14:14:50;29.10;;;18.40;;
76807;SDS011;65758;45.458;11.062;2023-03-23T14:17:26;26.70;;;17.70;;
76807;SDS011;65758;45.458;11.062;2023-03-23T14:19:55;28.60;;;17.20;;
76807;SDS011;65758;45.458;11.062;2023-03-23T14:22:35;21.90;;;15.40;;
76807;SDS011;65758;45.458;11.062;2023-03-23T14:25:11;26.00;;;17.70;;
76807;SDS011;65758;45.458;11.062;2023-03-23T14:27:39;23.60;;;16.50;;
76807;SDS011;65758;45.458;11.062;2023-03-23T14:30:18;31.50;;;19.00;;
76807;SDS011;65758;45.458;11.062;2023-03-23T14:32:47;27.50;;;17.70;;
76807;SDS011;65758;45.458;11.062;2023-03-23T14:35:17;29.40;;;19.10;;
76807;SDS011;65758;45.458;11.062;2023-03-23T14:37:44;24.10;;;14.90;;
76807;SDS011;65758;45.458;11.062;2023-03-23T14:40:14;25.10;;;16.20;;
76807;SDS011;65758;45.458;11.062;2023-03-23T14:42:41;20.60;;;13.80;;
76807;SDS011;65758;45.458;11.062;2023-03-23T14:45:10;22.90;;;15.30;;
76807;SDS011;65758;45.458;11.062;2023-03-23T14:47:45;24.70;;;17.30;;
76807;SDS011;65758;45.458;11.062;2023-03-23T14:53:09;34.20;;;19.60;;
76807;SDS011;65758;45.458;11.062;2023-03-23T14:55:41;25.90;;;17.70;;
76807;SDS011;65758;45.458;11.062;2023-03-23T14:58:12;28.50;;;20.00;;
76807;SDS011;65758;45.458;11.062;2023-03-23T15:00:45;28.20;;;19.20;;
76807;SDS011;65758;45.458;11.062;2023-03-23T15:03:16;34.30;;;19.40;;
76807;SDS011;65758;45.458;11.062;2023-03-23T15:05:45;34.90;;;20.90;;
76807;SDS011;65758;45.458;11.062;2023-03-23T15:08:17;30.00;;;19.60;;
76807;SDS011;65758;45.458;11.062;2023-03-23T15:10:51;31.50;;;20.00;;
76807;SDS011;65758;45.458;11.062;2023-03-23T15:13:19;29.90;;;20.90;;
76807;SDS011;65758;45.458;11.062;2023-03-23T15:15:44;29.00;;;19.30;;
76807;SDS011;65758;45.458;11.062;2023-03-23T15:18:20;29.90;;;20.20;;
76807;SDS011;65758;45.458;11.062;2023-03-23T15:20:55;35.70;;;21.30;;
76807;SDS011;65758;45.458;11.062;2023-03-23T15:23:22;32.30;;;21.10;;
76807;SDS011;65758;45.458;11.062;2023-03-23T15:25:55;31.00;;;21.00;;
76807;SDS011;65758;45.458;11.062;2023-03-23T15:28:32;30.60;;;20.40;;
76807;SDS011;65758;45.458;11.062;2023-03-23T15:31:02;29.40;;;19.40;;
76807;SDS011;65758;45.458;11.062;2023-03-23T15:33:34;31.00;;;20.20;;
76807;SDS011;65758;45.458;11.062;2023-03-23T15:36:06;33.90;;;22.00;;
76807;SDS011;65758;45.458;11.062;2023-03-23T15:38:35;35.50;;;22.60;;
76807;SDS011;65758;45.458;11.062;2023-03-23T15:41:02;32.50;;;21.00;;
76807;SDS011;65758;45.458;11.062;2023-03-23T15:43:36;33.20;;;21.30;;
76807;SDS011;65758;45.458;11.062;2023-03-23T15:48:49;31.10;;;18.40;;
76807;SDS011;65758;45.458;11.062;2023-03-23T15:51:17;31.80;;;20.30;;
76807;SDS011;65758;45.458;11.062;2023-03-23T15:53:45;29.00;;;20.10;;
76807;SDS011;65758;45.458;11.062;2023-03-23T15:56:12;33.00;;;21.70;;
76807;SDS011;65758;45.458;11.062;2023-03-23T15:58:39;31.10;;;16.60;;
76807;SDS011;65758;45.458;11.062;2023-03-23T16:04:27;22.70;;;15.10;;
76807;SDS011;65758;45.458;11.062;2023-03-23T16:06:36;25.50;;;16.20;;
76807;SDS011;65758;45.458;11.062;2023-03-23T16:09:04;26.70;;;17.50;;
76807;SDS011;65758;45.458;11.062;2023-03-23T16:11:32;29.00;;;17.60;;
76807;SDS011;65758;45.458;11.062;2023-03-23T16:13:59;24.40;;;17.30;;
76807;SDS011;65758;45.458;11.062;2023-03-23T16:16:28;27.50;;;16.80;;
76807;SDS011;65758;45.458;11.062;2023-03-23T16:18:59;29.90;;;17.20;;
76807;SDS011;65758;45.458;11.062;2023-03-23T16:21:26;30.50;;;19.60;;
76807;SDS011;65758;45.458;11.062;2023-03-23T16:23:53;31.30;;;19.80;;
76807;SDS011;65758;45.458;11.062;2023-03-23T16:26:21;29.00;;;19.30;;
76807;SDS011;65758;45.458;11.062;2023-03-23T16:28:48;31.70;;;19.90;;
76807;SDS011;65758;45.458;11.062;2023-03-23T16:31:15;31.50;;;19.70;;
76807;SDS011;65758;45.458;11.062;2023-03-23T16:33:42;29.70;;;19.90;;
76807;SDS011;65758;45.458;11.062;2023-03-23T16:36:10;31.20;;;19.50;;
76807;SDS011;65758;45.458;11.062;2023-03-23T16:38:39;30.20;;;18.60;;
76807;SDS011;65758;45.458;11.062;2023-03-23T16:41:16;27.10;;;17.60;;
76807;SDS011;65758;45.458;11.062;2023-03-23T16:43:43;30.30;;;18.40;;
76807;SDS011;65758;45.458;11.062;2023-03-23T16:46:11;34.00;;;19.40;;
76807;SDS011;65758;45.458;11.062;2023-03-23T16:48:39;30.00;;;18.20;;